sensor_id;sensor_type;location;lat;lon;timestamp;P1;durP1;ratioP1;P2;durP2;ratioP2
8632;SDS011;4354;49.832;10.746;2023-07-31T00:01:43;9.77;;;1.90;;
8632;SDS011;4354;49.832;10.746;2023-07-31T00:04:09;4.45;;;2.20;;
8632;SDS011;4354;49.832;10.746;2023-07-31T00:06:36;4.03;;;1.50;;
8632;SDS011;4354;49.832;10.746;2023-07-31T00:09:04;4.32;;;2.10;;
8632;SDS011;4354;49.832;10.746;2023-07-31T00:11:30;3.25;;;1.85;;
8632;SDS011;4354;49.832;10.746;2023-07-31T00:13:57;3.60;;;1.80;;
8632;SDS011;4354;49.832;10.746;2023-07-31T00:16:24;4.55;;;1.90;;
8632;SDS011;4354;49.832;10.746;2023-07-31T00:18:51;4.20;;;1.83;;
8632;SDS011;4354;49.832;10.746;2023-07-31T00:21:18;5.28;;;2.03;;
8632;SDS011;4354;49.832;10.746;2023-07-31T00:23:45;7.25;;;1.90;;
8632;SDS011;4354;49.832;10.746;2023-07-31T00:26:12;3.90;;;1.70;;
8632;SDS011;4354;49.832;10.746;2023-07-31T00:28:39;3.42;;;1.70;;
8632;SDS011;4354;49.832;10.746;2023-07-31T00:31:06;3.78;;;2.03;;
8632;SDS011;4354;49.832;10.746;2023-07-31T00:33:34;5.13;;;1.90;;
8632;SDS011;4354;49.832;10.746;2023-07-31T00:36:01;3.28;;;1.60;;
8632;SDS011;4354;49.832;10.746;2023-07-31T00:38:28;3.53;;;1.60;;
8632;SDS011;4354;49.832;10.746;2023-07-31T00:40:55;5.38;;;1.85;;
8632;SDS011;4354;49.832;10.746;2023-07-31T00:43:22;3.42;;;1.67;;
8632;SDS011;4354;49.832;10.746;2023-07-31T00:45:49;5.63;;;1.88;;
8632;SDS011;4354;49.832;10.746;2023-07-31T00:48:15;3.75;;;1.75;;
8632;SDS011;4354;49.832;10.746;2023-07-31T00:50:42;4.57;;;1.65;;
8632;SDS011;4354;49.832;10.746;2023-07-31T00:53:09;6.50;;;1.70;;
8632;SDS011;4354;49.832;10.746;2023-07-31T00:55:36;5.38;;;1.83;;
8632;SDS011;4354;49.832;10.746;2023-07-31T00:58:03;5.05;;;1.90;;
8632;SDS011;4354;49.832;10.746;2023-07-31T01:00:30;6.57;;;1.67;;
8632;SDS011;4354;49.832;10.746;2023-07-31T01:02:56;6.22;;;1.95;;
8632;SDS011;4354;49.832;10.746;2023-07-31T01:05:25;5.23;;;1.67;;
8632;SDS011;4354;49.832;10.746;2023-07-31T01:08:35;3.92;;;1.80;;
8632;SDS011;4354;49.832;10.746;2023-07-31T01:11:25;3.45;;;1.92;;
8632;SDS011;4354;49.832;10.746;2023-07-31T01:13:54;5.53;;;1.65;;
8632;SDS011;4354;49.832;10.746;2023-07-31T01:16:22;3.25;;;1.70;;
8632;SDS011;4354;49.832;10.746;2023-07-31T01:18:48;5.33;;;2.07;;
8632;SDS011;4354;49.832;10.746;2023-07-31T01:26:58;4.72;;;2.08;;
8632;SDS011;4354;49.832;10.746;2023-07-31T01:29:49;4.97;;;1.70;;
8632;SDS011;4354;49.832;10.746;2023-07-31T01:32:56;5.38;;;1.90;;
8632;SDS011;4354;49.832;10.746;2023-07-31T01:35:24;3.40;;;1.60;;
8632;SDS011;4354;49.832;10.746;2023-07-31T01:37:52;2.95;;;1.75;;
8632;SDS011;4354;49.832;10.746;2023-07-31T01:40:20;6.13;;;1.92;;
8632;SDS011;4354;49.832;10.746;2023-07-31T01:42:47;7.30;;;2.00;;
8632;SDS011;4354;49.832;10.746;2023-07-31T01:45:13;5.65;;;1.90;;
8632;SDS011;4354;49.832;10.746;2023-07-31T01:47:40;4.80;;;1.73;;
8632;SDS011;4354;49.832;10.746;2023-07-31T01:50:07;6.63;;;1.65;;
8632;SDS011;4354;49.832;10.746;2023-07-31T01:52:34;6.33;;;2.27;;
8632;SDS011;4354;49.832;10.746;2023-07-31T01:55:01;5.40;;;1.80;;
8632;SDS011;4354;49.832;10.746;2023-07-31T01:57:28;6.35;;;1.88;;
8632;SDS011;4354;49.832;10.746;2023-07-31T01:59:55;3.67;;;1.67;;
8632;SDS011;4354;49.832;10.746;2023-07-31T02:02:22;4.40;;;1.58;;
8632;SDS011;4354;49.832;10.746;2023-07-31T02:04:52;4.93;;;2.00;;
8632;SDS011;4354;49.832;10.746;2023-07-31T02:07:19;4.45;;;2.17;;
8632;SDS011;4354;49.832;10.746;2023-07-31T02:09:45;3.92;;;1.50;;
8632;SDS011;4354;49.832;10.746;2023-07-31T02:12:14;3.80;;;1.60;;
8632;SDS011;4354;49.832;10.746;2023-07-31T02:14:40;3.42;;;1.52;;
8632;SDS011;4354;49.832;10.746;2023-07-31T02:17:07;4.22;;;1.60;;
8632;SDS011;4354;49.832;10.746;2023-07-31T02:19:34;10.55;;;2.22;;
8632;SDS011;4354;49.832;10.746;2023-07-31T02:22:01;3.53;;;1.88;;
8632;SDS011;4354;49.832;10.746;2023-07-31T02:24:28;4.88;;;1.80;;
8632;SDS011;4354;49.832;10.746;2023-07-31T02:26:55;7.38;;;1.92;;
8632;SDS011;4354;49.832;10.746;2023-07-31T02:29:21;4.20;;;1.73;;
8632;SDS011;4354;49.832;10.746;2023-07-31T02:31:48;3.08;;;1.60;;
8632;SDS011;4354;49.832;10.746;2023-07-31T02:34:15;4.78;;;1.77;;
8632;SDS011;4354;49.832;10.746;2023-07-31T02:36:42;3.95;;;1.75;;
8632;SDS011;4354;49.832;10.746;2023-07-31T02:39:08;3.00;;;1.80;;
8632;SDS011;4354;49.832;10.746;2023-07-31T02:41:35;4.85;;;1.85;;
8632;SDS011;4354;49.832;10.746;2023-07-31T02:44:02;3.38;;;1.65;;
8632;SDS011;4354;49.832;10.746;2023-07-31T02:46:29;5.10;;;2.00;;
8632;SDS011;4354;49.832;10.746;2023-07-31T02:48:55;7.10;;;2.30;;
8632;SDS011;4354;49.832;10.746;2023-07-31T02:51:22;4.72;;;1.88;;
8632;SDS011;4354;49.832;10.746;2023-07-31T02:53:49;4.23;;;1.77;;
8632;SDS011;4354;49.832;10.746;2023-07-31T02:56:16;3.93;;;1.83;;
8632;SDS011;4354;49.832;10.746;2023-07-31T02:58:42;3.03;;;1.45;;
8632;SDS011;4354;49.832;10.746;2023-07-31T03:01:09;4.10;;;1.70;;
8632;SDS011;4354;49.832;10.746;2023-07-31T03:03:36;2.78;;;1.60;;
8632;SDS011;4354;49.832;10.746;2023-07-31T03:06:03;3.85;;;1.67;;
8632;SDS011;4354;49.832;10.746;2023-07-31T03:08:30;4.57;;;1.90;;
8632;SDS011;4354;49.832;10.746;2023-07-31T03:10:56;5.43;;;2.38;;
8632;SDS011;4354;49.832;10.746;2023-07-31T03:13:23;4.38;;;2.42;;
8632;SDS011;4354;49.832;10.746;2023-07-31T03:15:50;4.15;;;2.00;;
8632;SDS011;4354;49.832;10.746;2023-07-31T03:18:17;5.40;;;2.00;;
8632;SDS011;4354;49.832;10.746;2023-07-31T03:20:44;6.72;;;1.95;;
8632;SDS011;4354;49.832;10.746;2023-07-31T03:23:10;4.30;;;1.65;;
8632;SDS011;4354;49.832;10.746;2023-07-31T03:25:37;3.78;;;1.70;;
8632;SDS011;4354;49.832;10.746;2023-07-31T03:28:04;3.25;;;1.85;;
8632;SDS011;4354;49.832;10.746;2023-07-31T03:30:31;7.22;;;2.10;;
8632;SDS011;4354;49.832;10.746;2023-07-31T03:32:58;4.05;;;1.90;;
8632;SDS011;4354;49.832;10.746;2023-07-31T03:35:25;4.32;;;1.80;;
8632;SDS011;4354;49.832;10.746;2023-07-31T03:37:51;3.95;;;1.90;;
8632;SDS011;4354;49.832;10.746;2023-07-31T03:40:18;3.35;;;2.08;;
8632;SDS011;4354;49.832;10.746;2023-07-31T03:42:45;5.05;;;1.83;;
8632;SDS011;4354;49.832;10.746;2023-07-31T03:45:12;5.95;;;1.92;;
8632;SDS011;4354;49.832;10.746;2023-07-31T03:47:39;3.55;;;1.83;;
8632;SDS011;4354;49.832;10.746;2023-07-31T03:50:06;5.38;;;1.92;;
8632;SDS011;4354;49.832;10.746;2023-07-31T03:52:33;9.50;;;2.50;;
8632;SDS011;4354;49.832;10.746;2023-07-31T03:54:59;4.00;;;2.00;;
8632;SDS011;4354;49.832;10.746;2023-07-31T03:57:26;4.32;;;1.83;;
8632;SDS011;4354;49.832;10.746;2023-07-31T03:59:53;4.45;;;1.95;;
8632;SDS011;4354;49.832;10.746;2023-07-31T04:02:20;5.13;;;2.30;;
8632;SDS011;4354;49.832;10.746;2023-07-31T04:04:46;4.03;;;1.75;;
8632;SDS011;4354;49.832;10.746;2023-07-31T04:07:13;3.20;;;1.60;;
8632;SDS011;4354;49.832;10.746;2023-07-31T04:09:40;6.10;;;2.33;;
8632;SDS011;4354;49.832;10.746;2023-07-31T04:12:07;6.63;;;1.67;;
8632;SDS011;4354;49.832;10.746;2023-07-31T04:14:34;5.45;;;2.25;;
8632;SDS011;4354;49.832;10.746;2023-07-31T04:17:01;7.13;;;2.15;;
8632;SDS011;4354;49.832;10.746;2023-07-31T04:19:27;6.53;;;2.60;;
8632;SDS011;4354;49.832;10.746;2023-07-31T04:21:54;5.00;;;2.00;;
8632;SDS011;4354;49.832;10.746;2023-07-31T04:24:21;4.75;;;1.92;;
8632;SDS011;4354;49.832;10.746;2023-07-31T04:26:51;5.60;;;1.98;;
8632;SDS011;4354;49.832;10.746;2023-07-31T04:29:19;3.70;;;2.15;;
8632;SDS011;4354;49.832;10.746;2023-07-31T04:31:47;2.70;;;1.70;;
8632;SDS011;4354;49.832;10.746;2023-07-31T04:34:14;8.23;;;2.00;;
8632;SDS011;4354;49.832;10.746;2023-07-31T04:36:41;5.82;;;2.15;;
8632;SDS011;4354;49.832;10.746;2023-07-31T04:39:08;4.50;;;2.00;;
8632;SDS011;4354;49.832;10.746;2023-07-31T04:41:35;5.15;;;2.47;;
8632;SDS011;4354;49.832;10.746;2023-07-31T04:44:01;5.55;;;2.20;;
8632;SDS011;4354;49.832;10.746;2023-07-31T04:46:29;4.70;;;2.00;;
8632;SDS011;4354;49.832;10.746;2023-07-31T04:48:56;5.33;;;2.00;;
8632;SDS011;4354;49.832;10.746;2023-07-31T04:51:23;5.82;;;2.30;;
8632;SDS011;4354;49.832;10.746;2023-07-31T04:53:51;6.10;;;2.00;;
8632;SDS011;4354;49.832;10.746;2023-07-31T04:56:18;5.50;;;2.30;;
8632;SDS011;4354;49.832;10.746;2023-07-31T04:58:44;6.18;;;2.83;;
8632;SDS011;4354;49.832;10.746;2023-07-31T05:01:11;4.10;;;1.80;;
8632;SDS011;4354;49.832;10.746;2023-07-31T05:03:38;5.72;;;2.65;;
8632;SDS011;4354;49.832;10.746;2023-07-31T05:06:05;4.07;;;1.98;;
8632;SDS011;4354;49.832;10.746;2023-07-31T05:08:32;2.97;;;2.03;;
8632;SDS011;4354;49.832;10.746;2023-07-31T05:10:59;4.45;;;2.30;;
8632;SDS011;4354;49.832;10.746;2023-07-31T05:13:26;3.55;;;1.98;;
8632;SDS011;4354;49.832;10.746;2023-07-31T05:15:53;6.82;;;2.45;;
8632;SDS011;4354;49.832;10.746;2023-07-31T05:18:20;2.95;;;1.92;;
8632;SDS011;4354;49.832;10.746;2023-07-31T05:20:47;4.40;;;2.40;;
8632;SDS011;4354;49.832;10.746;2023-07-31T05:23:14;9.65;;;2.33;;
8632;SDS011;4354;49.832;10.746;2023-07-31T05:25:40;6.30;;;2.13;;
8632;SDS011;4354;49.832;10.746;2023-07-31T05:28:07;6.45;;;2.58;;
8632;SDS011;4354;49.832;10.746;2023-07-31T05:30:34;5.15;;;2.00;;
8632;SDS011;4354;49.832;10.746;2023-07-31T05:33:01;4.13;;;2.30;;
8632;SDS011;4354;49.832;10.746;2023-07-31T05:35:28;6.90;;;2.40;;
8632;SDS011;4354;49.832;10.746;2023-07-31T05:37:55;6.50;;;2.40;;
8632;SDS011;4354;49.832;10.746;2023-07-31T05:40:22;8.15;;;2.20;;
8632;SDS011;4354;49.832;10.746;2023-07-31T05:42:48;4.13;;;2.00;;
8632;SDS011;4354;49.832;10.746;2023-07-31T05:45:15;6.15;;;2.22;;
8632;SDS011;4354;49.832;10.746;2023-07-31T05:47:42;4.75;;;2.30;;
8632;SDS011;4354;49.832;10.746;2023-07-31T05:50:09;6.10;;;2.42;;
8632;SDS011;4354;49.832;10.746;2023-07-31T05:52:36;4.80;;;2.20;;
8632;SDS011;4354;49.832;10.746;2023-07-31T05:55:02;4.68;;;2.13;;
8632;SDS011;4354;49.832;10.746;2023-07-31T05:57:29;5.68;;;2.38;;
8632;SDS011;4354;49.832;10.746;2023-07-31T05:59:56;4.35;;;2.25;;
8632;SDS011;4354;49.832;10.746;2023-07-31T06:02:23;5.60;;;2.58;;
8632;SDS011;4354;49.832;10.746;2023-07-31T06:04:50;9.52;;;3.00;;
8632;SDS011;4354;49.832;10.746;2023-07-31T06:07:17;4.32;;;2.08;;
8632;SDS011;4354;49.832;10.746;2023-07-31T06:09:45;5.07;;;2.25;;
8632;SDS011;4354;49.832;10.746;2023-07-31T06:12:12;5.88;;;2.40;;
8632;SDS011;4354;49.832;10.746;2023-07-31T06:14:38;5.22;;;2.35;;
8632;SDS011;4354;49.832;10.746;2023-07-31T06:17:05;4.68;;;2.17;;
8632;SDS011;4354;49.832;10.746;2023-07-31T06:19:32;6.20;;;2.40;;
8632;SDS011;4354;49.832;10.746;2023-07-31T06:21:59;8.82;;;2.58;;
8632;SDS011;4354;49.832;10.746;2023-07-31T06:24:26;5.47;;;2.47;;
8632;SDS011;4354;49.832;10.746;2023-07-31T06:26:54;7.38;;;2.80;;
8632;SDS011;4354;49.832;10.746;2023-07-31T06:29:20;7.22;;;2.10;;
8632;SDS011;4354;49.832;10.746;2023-07-31T06:31:47;6.07;;;2.75;;
8632;SDS011;4354;49.832;10.746;2023-07-31T06:34:14;7.68;;;2.60;;
8632;SDS011;4354;49.832;10.746;2023-07-31T06:36:41;4.32;;;2.63;;
8632;SDS011;4354;49.832;10.746;2023-07-31T06:39:07;6.35;;;2.00;;
8632;SDS011;4354;49.832;10.746;2023-07-31T06:41:35;3.10;;;2.30;;
8632;SDS011;4354;49.832;10.746;2023-07-31T06:44:01;5.78;;;2.55;;
8632;SDS011;4354;49.832;10.746;2023-07-31T06:46:28;6.25;;;2.47;;
8632;SDS011;4354;49.832;10.746;2023-07-31T06:48:55;5.30;;;2.78;;
8632;SDS011;4354;49.832;10.746;2023-07-31T06:51:22;4.57;;;2.58;;
8632;SDS011;4354;49.832;10.746;2023-07-31T06:53:48;4.40;;;2.25;;
8632;SDS011;4354;49.832;10.746;2023-07-31T06:56:15;5.32;;;2.38;;
8632;SDS011;4354;49.832;10.746;2023-07-31T06:58:42;6.90;;;2.38;;
8632;SDS011;4354;49.832;10.746;2023-07-31T07:01:09;8.15;;;2.08;;
8632;SDS011;4354;49.832;10.746;2023-07-31T07:03:36;4.35;;;2.13;;
8632;SDS011;4354;49.832;10.746;2023-07-31T07:06:03;4.75;;;2.20;;
8632;SDS011;4354;49.832;10.746;2023-07-31T07:08:29;4.75;;;2.17;;
8632;SDS011;4354;49.832;10.746;2023-07-31T07:10:56;4.38;;;2.45;;
8632;SDS011;4354;49.832;10.746;2023-07-31T07:13:23;6.50;;;2.55;;
8632;SDS011;4354;49.832;10.746;2023-07-31T07:15:50;6.70;;;2.55;;
8632;SDS011;4354;49.832;10.746;2023-07-31T07:18:17;5.82;;;2.40;;
8632;SDS011;4354;49.832;10.746;2023-07-31T07:20:49;9.00;;;2.90;;
8632;SDS011;4354;49.832;10.746;2023-07-31T07:23:17;6.10;;;2.25;;
8632;SDS011;4354;49.832;10.746;2023-07-31T07:25:44;6.75;;;2.28;;
8632;SDS011;4354;49.832;10.746;2023-07-31T07:28:12;6.75;;;2.65;;
8632;SDS011;4354;49.832;10.746;2023-07-31T07:30:39;7.80;;;2.63;;
8632;SDS011;4354;49.832;10.746;2023-07-31T07:33:06;4.25;;;2.47;;
8632;SDS011;4354;49.832;10.746;2023-07-31T07:35:34;4.68;;;2.30;;
8632;SDS011;4354;49.832;10.746;2023-07-31T07:38:04;4.70;;;2.33;;
8632;SDS011;4354;49.832;10.746;2023-07-31T07:40:30;6.10;;;2.15;;
8632;SDS011;4354;49.832;10.746;2023-07-31T07:42:57;6.38;;;2.45;;
8632;SDS011;4354;49.832;10.746;2023-07-31T07:45:26;8.10;;;2.25;;
8632;SDS011;4354;49.832;10.746;2023-07-31T07:47:53;3.70;;;2.22;;
8632;SDS011;4354;49.832;10.746;2023-07-31T07:50:20;4.30;;;2.70;;
8632;SDS011;4354;49.832;10.746;2023-07-31T07:52:46;6.60;;;2.50;;
8632;SDS011;4354;49.832;10.746;2023-07-31T07:55:13;5.65;;;2.28;;
8632;SDS011;4354;49.832;10.746;2023-07-31T07:57:40;4.68;;;2.58;;
8632;SDS011;4354;49.832;10.746;2023-07-31T08:00:07;7.00;;;2.60;;
8632;SDS011;4354;49.832;10.746;2023-07-31T08:02:36;4.65;;;2.28;;
8632;SDS011;4354;49.832;10.746;2023-07-31T08:05:03;5.45;;;2.47;;
8632;SDS011;4354;49.832;10.746;2023-07-31T08:07:30;5.18;;;2.60;;
8632;SDS011;4354;49.832;10.746;2023-07-31T08:09:57;6.95;;;2.80;;
8632;SDS011;4354;49.832;10.746;2023-07-31T08:12:24;5.80;;;2.13;;
8632;SDS011;4354;49.832;10.746;2023-07-31T08:14:51;4.00;;;2.53;;
8632;SDS011;4354;49.832;10.746;2023-07-31T08:17:18;6.30;;;2.55;;
8632;SDS011;4354;49.832;10.746;2023-07-31T08:19:44;5.97;;;2.50;;
8632;SDS011;4354;49.832;10.746;2023-07-31T08:22:12;4.35;;;2.30;;
8632;SDS011;4354;49.832;10.746;2023-07-31T08:24:40;5.53;;;2.50;;
8632;SDS011;4354;49.832;10.746;2023-07-31T08:27:07;4.82;;;2.58;;
8632;SDS011;4354;49.832;10.746;2023-07-31T08:29:34;5.03;;;2.58;;
8632;SDS011;4354;49.832;10.746;2023-07-31T08:32:00;4.43;;;2.30;;
8632;SDS011;4354;49.832;10.746;2023-07-31T08:34:27;5.30;;;2.15;;
8632;SDS011;4354;49.832;10.746;2023-07-31T08:36:54;5.13;;;2.22;;
8632;SDS011;4354;49.832;10.746;2023-07-31T08:39:20;4.30;;;2.03;;
8632;SDS011;4354;49.832;10.746;2023-07-31T08:41:47;3.55;;;2.10;;
8632;SDS011;4354;49.832;10.746;2023-07-31T08:44:14;4.72;;;2.38;;
8632;SDS011;4354;49.832;10.746;2023-07-31T08:46:43;3.60;;;2.45;;
8632;SDS011;4354;49.832;10.746;2023-07-31T08:49:10;4.28;;;1.95;;
8632;SDS011;4354;49.832;10.746;2023-07-31T08:51:37;4.07;;;2.25;;
8632;SDS011;4354;49.832;10.746;2023-07-31T08:54:05;4.50;;;2.60;;
8632;SDS011;4354;49.832;10.746;2023-07-31T08:56:32;5.40;;;2.50;;
8632;SDS011;4354;49.832;10.746;2023-07-31T08:59:00;5.50;;;2.35;;
8632;SDS011;4354;49.832;10.746;2023-07-31T09:01:30;6.45;;;2.65;;
8632;SDS011;4354;49.832;10.746;2023-07-31T09:04:00;3.72;;;2.05;;
8632;SDS011;4354;49.832;10.746;2023-07-31T09:06:29;4.13;;;2.70;;
8632;SDS011;4354;49.832;10.746;2023-07-31T09:08:57;5.07;;;2.50;;
8632;SDS011;4354;49.832;10.746;2023-07-31T09:11:24;6.43;;;2.20;;
8632;SDS011;4354;49.832;10.746;2023-07-31T09:13:52;5.18;;;2.30;;
8632;SDS011;4354;49.832;10.746;2023-07-31T09:16:29;3.47;;;2.03;;
8632;SDS011;4354;49.832;10.746;2023-07-31T09:18:58;3.40;;;2.20;;
8632;SDS011;4354;49.832;10.746;2023-07-31T09:21:27;3.22;;;2.35;;
8632;SDS011;4354;49.832;10.746;2023-07-31T09:23:54;5.22;;;2.42;;
8632;SDS011;4354;49.832;10.746;2023-07-31T09:26:28;4.35;;;2.03;;
8632;SDS011;4354;49.832;10.746;2023-07-31T09:28:57;5.00;;;2.28;;
8632;SDS011;4354;49.832;10.746;2023-07-31T09:31:38;5.15;;;2.38;;
8632;SDS011;4354;49.832;10.746;2023-07-31T09:34:09;5.85;;;2.28;;
8632;SDS011;4354;49.832;10.746;2023-07-31T09:36:40;3.40;;;1.95;;
8632;SDS011;4354;49.832;10.746;2023-07-31T09:39:12;4.50;;;2.38;;
8632;SDS011;4354;49.832;10.746;2023-07-31T09:41:42;4.70;;;2.63;;
8632;SDS011;4354;49.832;10.746;2023-07-31T09:44:11;3.92;;;2.17;;
8632;SDS011;4354;49.832;10.746;2023-07-31T09:46:38;3.97;;;2.08;;
8632;SDS011;4354;49.832;10.746;2023-07-31T09:49:09;7.70;;;2.47;;
8632;SDS011;4354;49.832;10.746;2023-07-31T09:51:37;4.20;;;2.40;;
8632;SDS011;4354;49.832;10.746;2023-07-31T09:54:11;4.55;;;2.00;;
8632;SDS011;4354;49.832;10.746;2023-07-31T09:56:43;3.25;;;2.20;;
8632;SDS011;4354;49.832;10.746;2023-07-31T09:59:12;4.38;;;2.50;;
8632;SDS011;4354;49.832;10.746;2023-07-31T10:01:49;3.42;;;1.88;;
8632;SDS011;4354;49.832;10.746;2023-07-31T10:04:16;5.65;;;2.42;;
8632;SDS011;4354;49.832;10.746;2023-07-31T10:06:47;5.18;;;2.67;;
8632;SDS011;4354;49.832;10.746;2023-07-31T10:09:16;4.50;;;2.40;;
8632;SDS011;4354;49.832;10.746;2023-07-31T10:11:48;3.95;;;2.50;;
8632;SDS011;4354;49.832;10.746;2023-07-31T10:14:22;4.70;;;2.63;;
8632;SDS011;4354;49.832;10.746;2023-07-31T10:16:50;3.53;;;2.55;;
8632;SDS011;4354;49.832;10.746;2023-07-31T10:19:18;5.20;;;2.58;;
8632;SDS011;4354;49.832;10.746;2023-07-31T10:21:47;5.63;;;2.30;;
8632;SDS011;4354;49.832;10.746;2023-07-31T10:24:15;4.25;;;2.33;;
8632;SDS011;4354;49.832;10.746;2023-07-31T10:26:42;4.90;;;2.42;;
8632;SDS011;4354;49.832;10.746;2023-07-31T10:29:14;4.75;;;2.38;;
8632;SDS011;4354;49.832;10.746;2023-07-31T10:31:42;2.95;;;2.47;;
8632;SDS011;4354;49.832;10.746;2023-07-31T10:34:10;4.55;;;2.60;;
8632;SDS011;4354;49.832;10.746;2023-07-31T10:36:37;3.55;;;2.42;;
8632;SDS011;4354;49.832;10.746;2023-07-31T10:39:05;4.18;;;2.50;;
8632;SDS011;4354;49.832;10.746;2023-07-31T10:42:12;7.15;;;2.33;;
8632;SDS011;4354;49.832;10.746;2023-07-31T10:44:46;6.90;;;2.40;;
8632;SDS011;4354;49.832;10.746;2023-07-31T10:47:16;6.63;;;2.60;;
8632;SDS011;4354;49.832;10.746;2023-07-31T10:49:46;5.82;;;2.63;;
8632;SDS011;4354;49.832;10.746;2023-07-31T10:52:16;4.13;;;2.55;;
8632;SDS011;4354;49.832;10.746;2023-07-31T10:57:44;4.40;;;2.70;;
8632;SDS011;4354;49.832;10.746;2023-07-31T11:05:43;9.25;;;2.95;;
8632;SDS011;4354;49.832;10.746;2023-07-31T11:08:26;4.57;;;2.75;;
8632;SDS011;4354;49.832;10.746;2023-07-31T11:16:07;4.43;;;2.17;;
8632;SDS011;4354;49.832;10.746;2023-07-31T11:18:35;6.20;;;2.40;;
8632;SDS011;4354;49.832;10.746;2023-07-31T11:21:02;6.85;;;2.60;;
8632;SDS011;4354;49.832;10.746;2023-07-31T11:23:30;5.75;;;2.78;;
8632;SDS011;4354;49.832;10.746;2023-07-31T11:25:58;5.85;;;2.92;;
8632;SDS011;4354;49.832;10.746;2023-07-31T11:28:26;4.65;;;2.55;;
8632;SDS011;4354;49.832;10.746;2023-07-31T11:30:57;4.93;;;2.42;;
8632;SDS011;4354;49.832;10.746;2023-07-31T11:33:24;7.20;;;2.95;;
8632;SDS011;4354;49.832;10.746;2023-07-31T11:35:51;5.97;;;2.67;;
8632;SDS011;4354;49.832;10.746;2023-07-31T11:38:24;5.00;;;2.53;;
8632;SDS011;4354;49.832;10.746;2023-07-31T11:40:52;5.82;;;2.58;;
8632;SDS011;4354;49.832;10.746;2023-07-31T11:43:20;6.50;;;2.67;;
8632;SDS011;4354;49.832;10.746;2023-07-31T11:45:48;6.90;;;2.63;;
8632;SDS011;4354;49.832;10.746;2023-07-31T11:48:25;12.55;;;3.13;;
8632;SDS011;4354;49.832;10.746;2023-07-31T11:50:54;9.23;;;3.20;;
8632;SDS011;4354;49.832;10.746;2023-07-31T11:53:40;7.82;;;2.83;;
8632;SDS011;4354;49.832;10.746;2023-07-31T11:56:09;6.97;;;3.20;;
8632;SDS011;4354;49.832;10.746;2023-07-31T11:58:39;7.63;;;3.28;;
8632;SDS011;4354;49.832;10.746;2023-07-31T12:01:09;7.10;;;2.75;;
8632;SDS011;4354;49.832;10.746;2023-07-31T12:03:36;5.43;;;2.65;;
8632;SDS011;4354;49.832;10.746;2023-07-31T12:06:04;6.15;;;2.80;;
8632;SDS011;4354;49.832;10.746;2023-07-31T12:08:31;4.93;;;2.47;;
8632;SDS011;4354;49.832;10.746;2023-07-31T12:11:01;4.80;;;2.53;;
8632;SDS011;4354;49.832;10.746;2023-07-31T12:13:35;6.03;;;2.28;;
8632;SDS011;4354;49.832;10.746;2023-07-31T12:16:03;5.88;;;2.72;;
8632;SDS011;4354;49.832;10.746;2023-07-31T12:18:35;6.75;;;3.00;;
8632;SDS011;4354;49.832;10.746;2023-07-31T12:21:07;6.75;;;3.00;;
8632;SDS011;4354;49.832;10.746;2023-07-31T12:23:35;8.73;;;2.88;;
8632;SDS011;4354;49.832;10.746;2023-07-31T12:26:04;9.38;;;3.03;;
8632;SDS011;4354;49.832;10.746;2023-07-31T12:28:36;10.20;;;2.80;;
8632;SDS011;4354;49.832;10.746;2023-07-31T12:31:04;8.68;;;2.53;;
8632;SDS011;4354;49.832;10.746;2023-07-31T12:33:32;5.20;;;2.67;;
8632;SDS011;4354;49.832;10.746;2023-07-31T12:36:01;6.03;;;2.63;;
8632;SDS011;4354;49.832;10.746;2023-07-31T12:38:29;7.07;;;2.70;;
8632;SDS011;4354;49.832;10.746;2023-07-31T12:40:57;5.50;;;2.65;;
8632;SDS011;4354;49.832;10.746;2023-07-31T12:43:23;8.02;;;3.17;;
8632;SDS011;4354;49.832;10.746;2023-07-31T12:45:51;5.75;;;2.67;;
8632;SDS011;4354;49.832;10.746;2023-07-31T12:48:17;3.83;;;2.72;;
8632;SDS011;4354;49.832;10.746;2023-07-31T12:50:44;3.90;;;2.65;;
8632;SDS011;4354;49.832;10.746;2023-07-31T12:53:11;7.68;;;2.63;;
8632;SDS011;4354;49.832;10.746;2023-07-31T12:55:38;5.28;;;2.60;;
8632;SDS011;4354;49.832;10.746;2023-07-31T12:58:05;5.65;;;2.75;;
8632;SDS011;4354;49.832;10.746;2023-07-31T13:00:32;6.40;;;2.70;;
8632;SDS011;4354;49.832;10.746;2023-07-31T13:02:59;5.85;;;3.08;;
8632;SDS011;4354;49.832;10.746;2023-07-31T13:05:27;6.78;;;3.25;;
8632;SDS011;4354;49.832;10.746;2023-07-31T13:07:54;4.32;;;2.67;;
8632;SDS011;4354;49.832;10.746;2023-07-31T13:10:22;5.10;;;2.67;;
8632;SDS011;4354;49.832;10.746;2023-07-31T13:12:49;5.00;;;2.78;;
8632;SDS011;4354;49.832;10.746;2023-07-31T13:15:16;4.68;;;2.97;;
8632;SDS011;4354;49.832;10.746;2023-07-31T13:17:43;4.10;;;2.83;;
8632;SDS011;4354;49.832;10.746;2023-07-31T13:20:10;5.13;;;2.60;;
8632;SDS011;4354;49.832;10.746;2023-07-31T13:22:38;6.32;;;2.80;;
8632;SDS011;4354;49.832;10.746;2023-07-31T13:25:06;7.82;;;3.33;;
8632;SDS011;4354;49.832;10.746;2023-07-31T13:27:33;5.60;;;2.92;;
8632;SDS011;4354;49.832;10.746;2023-07-31T13:30:01;7.35;;;2.80;;
8632;SDS011;4354;49.832;10.746;2023-07-31T13:32:27;7.70;;;2.95;;
8632;SDS011;4354;49.832;10.746;2023-07-31T13:34:56;5.22;;;3.28;;
8632;SDS011;4354;49.832;10.746;2023-07-31T13:37:22;5.18;;;2.85;;
8632;SDS011;4354;49.832;10.746;2023-07-31T13:39:49;7.35;;;2.50;;
8632;SDS011;4354;49.832;10.746;2023-07-31T13:42:16;4.05;;;2.88;;
8632;SDS011;4354;49.832;10.746;2023-07-31T13:44:42;6.80;;;2.90;;
8632;SDS011;4354;49.832;10.746;2023-07-31T13:47:09;10.40;;;3.22;;
8632;SDS011;4354;49.832;10.746;2023-07-31T13:49:36;6.15;;;2.80;;
8632;SDS011;4354;49.832;10.746;2023-07-31T13:52:05;4.90;;;2.90;;
8632;SDS011;4354;49.832;10.746;2023-07-31T13:54:32;6.20;;;2.80;;
8632;SDS011;4354;49.832;10.746;2023-07-31T13:56:59;8.93;;;3.13;;
8632;SDS011;4354;49.832;10.746;2023-07-31T13:59:26;5.95;;;3.10;;
8632;SDS011;4354;49.832;10.746;2023-07-31T14:01:52;5.10;;;3.08;;
8632;SDS011;4354;49.832;10.746;2023-07-31T14:04:19;5.22;;;2.90;;
8632;SDS011;4354;49.832;10.746;2023-07-31T14:06:46;7.20;;;3.50;;
8632;SDS011;4354;49.832;10.746;2023-07-31T14:09:14;3.28;;;2.75;;
8632;SDS011;4354;49.832;10.746;2023-07-31T14:11:40;5.03;;;3.08;;
8632;SDS011;4354;49.832;10.746;2023-07-31T14:14:08;8.15;;;3.30;;
8632;SDS011;4354;49.832;10.746;2023-07-31T14:16:36;5.50;;;2.55;;
8632;SDS011;4354;49.832;10.746;2023-07-31T14:19:03;6.53;;;3.00;;
8632;SDS011;4354;49.832;10.746;2023-07-31T14:21:30;7.55;;;3.25;;
8632;SDS011;4354;49.832;10.746;2023-07-31T14:23:57;7.90;;;3.30;;
8632;SDS011;4354;49.832;10.746;2023-07-31T14:26:24;6.97;;;3.38;;
8632;SDS011;4354;49.832;10.746;2023-07-31T14:28:51;6.13;;;2.97;;
8632;SDS011;4354;49.832;10.746;2023-07-31T14:31:17;5.97;;;2.92;;
8632;SDS011;4354;49.832;10.746;2023-07-31T14:33:44;7.13;;;2.90;;
8632;SDS011;4354;49.832;10.746;2023-07-31T14:36:11;9.27;;;2.90;;
8632;SDS011;4354;49.832;10.746;2023-07-31T14:38:38;3.80;;;2.90;;
8632;SDS011;4354;49.832;10.746;2023-07-31T14:41:05;7.13;;;2.83;;
8632;SDS011;4354;49.832;10.746;2023-07-31T14:43:32;6.18;;;3.10;;
8632;SDS011;4354;49.832;10.746;2023-07-31T14:45:58;4.07;;;2.92;;
8632;SDS011;4354;49.832;10.746;2023-07-31T14:48:26;6.82;;;3.20;;
8632;SDS011;4354;49.832;10.746;2023-07-31T14:50:53;5.18;;;2.85;;
8632;SDS011;4354;49.832;10.746;2023-07-31T14:53:20;7.35;;;3.20;;
8632;SDS011;4354;49.832;10.746;2023-07-31T14:55:47;7.63;;;2.90;;
8632;SDS011;4354;49.832;10.746;2023-07-31T14:58:14;7.78;;;3.08;;
8632;SDS011;4354;49.832;10.746;2023-07-31T15:00:43;7.20;;;3.00;;
8632;SDS011;4354;49.832;10.746;2023-07-31T15:03:10;6.93;;;2.95;;
8632;SDS011;4354;49.832;10.746;2023-07-31T15:05:37;8.55;;;3.20;;
8632;SDS011;4354;49.832;10.746;2023-07-31T15:08:04;6.22;;;2.90;;
8632;SDS011;4354;49.832;10.746;2023-07-31T15:10:31;7.32;;;3.00;;
8632;SDS011;4354;49.832;10.746;2023-07-31T15:12:58;5.20;;;2.97;;
8632;SDS011;4354;49.832;10.746;2023-07-31T15:15:25;5.07;;;3.03;;
8632;SDS011;4354;49.832;10.746;2023-07-31T15:17:52;7.22;;;3.05;;
8632;SDS011;4354;49.832;10.746;2023-07-31T15:20:18;5.63;;;3.15;;
8632;SDS011;4354;49.832;10.746;2023-07-31T15:22:45;5.90;;;3.03;;
8632;SDS011;4354;49.832;10.746;2023-07-31T15:25:13;6.05;;;3.03;;